Yellowknife, Canada
Current Conditions -  °F | °C
As of 12:00 AM on Saturday 20 Dec 2014 (Local Time) from CYZF Reporting Station
Broken Clouds Broken Clouds  
Wind Chill:   Ceiling: 5200
Heat Index: 12°   Visibility: 15mi
Dew Point:   Wind: 9mph
Humidity: 85%   Direction: 90°E
Pressure: 29.6"   Gusts: NA
Location:  62.45°N, 114.37°W
Report Text: CYZF 200700Z 09008KT 15SM BKN052 M11/M13 A2960 RMK SC6 SLP045
Loading
Personal Weather Stations






























Interactive Weather Map New forecast layout! Learn more

10-Day Weather Forecast

Advertisements
Track Severe Weather on mobile